createdAt,value
2022-10-07T00:02:30.643Z,81.50
2022-10-07T00:05:05.414Z,81.76
2022-10-07T00:07:37.666Z,81.74
2022-10-07T00:10:11.077Z,81.66
2022-10-07T00:12:45.156Z,81.82
2022-10-07T00:15:17.362Z,81.72
2022-10-07T00:17:49.510Z,81.74
2022-10-07T00:20:21.681Z,81.93
2022-10-07T00:22:54.519Z,81.64
2022-10-07T00:25:27.206Z,81.70
2022-10-07T00:27:59.251Z,81.88
2022-10-07T00:30:31.384Z,81.88
2022-10-07T00:33:03.568Z,82.00
2022-10-07T00:35:37.973Z,81.68
2022-10-07T00:38:10.983Z,81.61
2022-10-07T00:40:45.061Z,81.91
2022-10-07T00:43:26.477Z,81.98
2022-10-07T00:46:07.258Z,81.76
2022-10-07T00:48:41.896Z,81.93
2022-10-07T00:51:16.455Z,81.94
2022-10-07T00:53:52.651Z,81.68
2022-10-07T00:56:27.299Z,82.05
2022-10-07T00:59:00.577Z,81.95
2022-10-07T01:01:35.529Z,82.01
2022-10-07T01:04:08.189Z,81.89
2022-10-07T01:06:41.581Z,82.06
2022-10-07T01:09:14.864Z,82.02
2022-10-07T01:11:58.171Z,81.98
2022-10-07T01:14:50.307Z,82.25
2022-10-07T01:17:31.795Z,82.17
2022-10-07T01:20:31.417Z,82.16
2022-10-07T01:23:32.756Z,82.07
2022-10-07T01:26:46.567Z,81.99
2022-10-07T01:29:22.893Z,81.99
2022-10-07T01:32:00.772Z,82.19
2022-10-07T01:34:34.423Z,82.32
2022-10-07T01:37:12.240Z,82.44
2022-10-07T01:39:50.272Z,82.25
2022-10-07T01:42:26.315Z,82.26
2022-10-07T01:45:01.260Z,82.11
2022-10-07T01:47:35.919Z,82.44
2022-10-07T01:50:15.132Z,82.04
2022-10-07T01:53:01.773Z,82.17
2022-10-07T01:55:45.728Z,82.22
2022-10-07T01:58:41.233Z,82.21
2022-10-07T02:01:22.912Z,82.25
2022-10-07T02:04:13.481Z,82.25
2022-10-07T02:06:51.487Z,82.35
2022-10-07T02:09:31.335Z,82.50
2022-10-07T02:12:13.021Z,82.55
2022-10-07T02:14:52.307Z,82.71
2022-10-07T02:17:27.052Z,82.53
2022-10-07T02:20:01.283Z,82.22
2022-10-07T02:22:34.464Z,82.27
2022-10-07T02:25:10.007Z,82.40
2022-10-07T02:27:44.366Z,82.23
2022-10-07T02:30:20.083Z,82.25
2022-10-07T02:32:56.712Z,82.21
2022-10-07T02:35:33.998Z,82.73
2022-10-07T02:38:10.530Z,82.53
2022-10-07T02:40:49.454Z,82.57
2022-10-07T02:43:32.936Z,82.58
2022-10-07T02:46:10.259Z,82.60
2022-10-07T02:48:46.471Z,82.38
2022-10-07T02:51:24.365Z,82.26
2022-10-07T02:53:58.627Z,82.39
2022-10-07T02:56:32.759Z,82.59
2022-10-07T02:59:07.993Z,82.68
2022-10-07T03:01:46.710Z,82.75
2022-10-07T03:04:22.830Z,82.80
2022-10-07T03:06:55.535Z,82.72
2022-10-07T03:09:30.036Z,83.06
2022-10-07T03:12:05.662Z,83.06
2022-10-07T03:14:37.737Z,82.97
2022-10-07T03:17:12.644Z,82.87
2022-10-07T03:19:44.867Z,82.71
2022-10-07T03:22:18.027Z,82.88
2022-10-07T03:24:50.497Z,82.86
2022-10-07T03:27:22.750Z,83.03
2022-10-07T03:29:55.811Z,82.95
2022-10-07T03:32:28.306Z,83.10
2022-10-07T03:35:01.918Z,83.02
2022-10-07T03:37:35.198Z,83.07
2022-10-07T03:40:09.040Z,83.16
2022-10-07T03:42:43.550Z,83.10
2022-10-07T03:45:15.961Z,83.09
2022-10-07T03:47:48.352Z,83.08
2022-10-07T03:50:21.071Z,83.09
2022-10-07T03:52:54.034Z,82.83
2022-10-07T03:55:26.342Z,82.72
2022-10-07T03:57:59.854Z,82.84
2022-10-07T04:00:33.129Z,82.92
2022-10-07T04:03:05.769Z,83.01
2022-10-07T04:05:39.223Z,83.14
2022-10-07T04:08:15.907Z,83.15
2022-10-07T04:10:48.007Z,83.39
2022-10-07T04:13:20.090Z,83.12
2022-10-07T04:15:52.572Z,83.14
2022-10-07T04:18:26.161Z,82.98
2022-10-07T04:21:02.085Z,83.17
2022-10-07T04:23:35.485Z,82.97
2022-10-07T04:26:12.615Z,83.04
2022-10-07T04:28:49.264Z,83.03
2022-10-07T04:31:29.475Z,83.27
2022-10-07T04:34:04.433Z,83.13
2022-10-07T04:36:40.223Z,83.11
2022-10-07T04:39:18.509Z,83.19
2022-10-07T04:41:58.351Z,83.15
2022-10-07T04:44:34.511Z,82.87
2022-10-07T04:47:10.365Z,82.98
2022-10-07T04:49:43.307Z,83.03
2022-10-07T04:52:16.191Z,83.19
2022-10-07T04:54:49.131Z,83.16
2022-10-07T04:57:21.310Z,83.26
2022-10-07T04:59:53.993Z,83.32
2022-10-07T05:02:26.661Z,83.44
2022-10-07T05:05:02.371Z,83.34
2022-10-07T05:07:34.955Z,83.13
2022-10-07T05:10:08.750Z,83.30
2022-10-07T05:12:42.002Z,83.38
2022-10-07T05:15:14.659Z,83.47
2022-10-07T05:17:47.507Z,83.64
2022-10-07T05:20:20.427Z,83.76
2022-10-07T05:22:56.022Z,83.74
2022-10-07T05:25:28.213Z,83.97
2022-10-07T05:28:05.220Z,84.05
2022-10-07T05:30:37.568Z,83.98
2022-10-07T05:33:10.923Z,84.23
2022-10-07T05:35:51.388Z,84.28
2022-10-07T05:38:24.054Z,84.51
2022-10-07T05:41:00.919Z,84.65
2022-10-07T05:43:36.498Z,84.66
2022-10-07T05:46:12.015Z,84.64
2022-10-07T05:48:48.523Z,84.85
2022-10-07T05:51:21.900Z,84.83
2022-10-07T05:53:56.711Z,84.96
2022-10-07T05:56:32.493Z,85.11
2022-10-07T05:59:05.631Z,85.37
2022-10-07T06:01:39.835Z,85.29
2022-10-07T06:04:15.423Z,85.60
2022-10-07T06:06:50.120Z,85.70
2022-10-07T06:09:40.773Z,85.91
2022-10-07T06:16:09.055Z,87.41
2022-10-07T06:18:41.519Z,90.42
2022-10-07T06:22:04.979Z,89.08
2022-10-07T06:24:38.029Z,84.16
2022-10-07T06:28:18.076Z,82.53
2022-10-07T06:30:51.211Z,82.61
2022-10-07T06:37:39.393Z,82.62
2022-10-07T06:40:44.187Z,83.31
2022-10-07T06:43:16.949Z,83.62
2022-10-07T06:47:01.717Z,84.54
2022-10-07T06:54:26.109Z,90.38
2022-10-07T06:56:58.389Z,90.42
2022-10-07T06:59:31.119Z,88.07
2022-10-07T07:03:02.272Z,82.81
2022-10-07T07:05:49.752Z,79.85
2022-10-07T07:08:27.879Z,78.94
2022-10-07T07:15:14.409Z,80.71
2022-10-07T07:17:47.080Z,79.52
2022-10-07T07:20:19.825Z,79.31
2022-10-07T07:22:52.524Z,79.47
2022-10-07T07:25:24.673Z,78.04
2022-10-07T07:28:00.919Z,76.53
2022-10-07T07:30:34.581Z,76.63
2022-10-07T07:33:07.180Z,76.90
2022-10-07T07:35:43.602Z,74.99
2022-10-07T07:38:24.735Z,72.61
2022-10-07T07:40:58.456Z,71.41
2022-10-07T07:43:30.833Z,68.40
2022-10-07T07:46:03.184Z,65.81
2022-10-07T07:48:38.551Z,65.27
2022-10-07T07:51:19.061Z,61.67
2022-10-07T07:53:52.578Z,58.14
2022-10-07T07:56:24.611Z,56.17
2022-10-07T07:58:57.237Z,54.24
2022-10-07T08:01:32.034Z,52.11
2022-10-07T08:04:05.826Z,52.02
2022-10-07T08:06:37.969Z,52.79
2022-10-07T08:09:10.769Z,51.64
2022-10-07T08:11:45.481Z,51.59
2022-10-07T08:14:19.863Z,48.96
2022-10-07T08:16:55.598Z,47.75
2022-10-07T08:19:29.656Z,46.29
2022-10-07T08:22:02.280Z,44.11
2022-10-07T08:24:36.026Z,43.56
2022-10-07T08:27:08.074Z,43.46
2022-10-07T08:29:42.570Z,43.59
2022-10-07T08:32:15.253Z,44.22
2022-10-07T08:34:47.418Z,45.02
2022-10-07T08:37:20.559Z,44.93
2022-10-07T08:39:52.654Z,43.52
2022-10-07T08:42:31.241Z,42.10
2022-10-07T08:45:04.190Z,41.12
2022-10-07T08:47:42.044Z,40.03
2022-10-07T08:50:19.746Z,38.39
2022-10-07T08:52:56.949Z,37.69
2022-10-07T08:55:41.118Z,36.85
2022-10-07T08:58:31.271Z,36.02
2022-10-07T09:01:12.839Z,35.08
2022-10-07T09:03:52.143Z,34.49
2022-10-07T09:06:33.593Z,32.63
2022-10-07T09:09:14.018Z,31.50
2022-10-07T09:11:49.478Z,29.61
2022-10-07T09:14:28.134Z,29.40
2022-10-07T09:17:08.010Z,28.51
2022-10-07T09:19:48.099Z,27.81
2022-10-07T09:22:32.236Z,27.56
2022-10-07T09:25:21.045Z,27.44
2022-10-07T09:27:56.413Z,27.83
2022-10-07T09:30:29.670Z,26.42
2022-10-07T09:33:04.432Z,26.16
2022-10-07T09:35:38.239Z,26.94
2022-10-07T09:38:10.998Z,27.09
2022-10-07T09:40:59.002Z,27.45
2022-10-07T09:44:19.180Z,28.55
2022-10-07T09:52:24.267Z,31.52
2022-10-07T10:06:46.033Z,35.64
2022-10-07T10:09:42.217Z,36.52
2022-10-07T10:12:16.920Z,37.19
2022-10-07T10:20:38.571Z,38.78
2022-10-07T10:31:05.012Z,40.90
2022-10-07T10:34:15.922Z,41.73
2022-10-07T10:54:59.284Z,44.61
2022-10-07T11:01:46.898Z,45.49
2022-10-07T11:04:26.814Z,45.93
2022-10-07T11:15:48.834Z,47.65
2022-10-07T11:19:25.221Z,48.02
2022-10-07T11:22:00.408Z,47.84
2022-10-07T11:25:48.742Z,48.14
2022-10-07T11:36:19.919Z,48.86
2022-10-07T11:39:20.053Z,49.09
2022-10-07T11:51:12.098Z,50.25
2022-10-07T11:53:53.399Z,50.87
2022-10-07T11:56:28.374Z,50.98
2022-10-07T11:59:02.507Z,51.20
2022-10-07T12:02:40.548Z,51.62
2022-10-07T12:05:57.633Z,51.94
2022-10-07T12:08:38.503Z,52.45
2022-10-07T12:11:45.313Z,52.71
2022-10-07T12:14:42.138Z,53.16
2022-10-07T12:17:30.469Z,53.22
2022-10-07T12:30:03.236Z,53.23
2022-10-07T12:38:02.895Z,53.44
2022-10-07T12:41:19.021Z,53.50
2022-10-07T12:44:01.335Z,53.71
2022-10-07T12:46:40.090Z,53.70
2022-10-07T12:49:26.253Z,53.28
2022-10-07T12:52:06.362Z,53.76
2022-10-07T12:54:45.478Z,53.76
2022-10-07T12:58:29.167Z,53.58
2022-10-07T13:01:28.528Z,53.65
2022-10-07T13:04:29.606Z,53.69
2022-10-07T13:07:40.022Z,53.99
2022-10-07T13:10:38.929Z,53.92
2022-10-07T13:13:16.673Z,53.62
2022-10-07T13:15:54.710Z,53.43
2022-10-07T13:18:40.641Z,53.30
2022-10-07T13:21:23.344Z,52.66
2022-10-07T13:23:57.293Z,52.43
2022-10-07T13:26:30.200Z,52.38
2022-10-07T13:29:09.340Z,52.51
2022-10-07T13:31:42.035Z,53.08
2022-10-07T13:34:21.352Z,52.43
2022-10-07T13:36:53.533Z,52.19
2022-10-07T13:39:30.687Z,51.84
2022-10-07T13:42:04.101Z,51.11
2022-10-07T13:44:36.357Z,50.31
2022-10-07T13:50:17.740Z,50.57
2022-10-07T13:52:53.324Z,51.02
2022-10-07T13:55:37.318Z,50.47
2022-10-07T13:58:11.091Z,50.53
2022-10-07T14:00:49.045Z,50.26
2022-10-07T14:03:21.318Z,50.24
2022-10-07T14:05:57.384Z,50.50
2022-10-07T14:08:34.239Z,50.96
2022-10-07T14:11:17.420Z,50.67
2022-10-07T14:13:50.476Z,50.71
2022-10-07T14:16:26.559Z,51.25
2022-10-07T14:18:59.141Z,51.44
2022-10-07T14:26:01.986Z,51.36
2022-10-07T14:28:34.198Z,51.40
2022-10-07T14:31:59.250Z,51.91
2022-10-07T14:40:03.957Z,52.82
2022-10-07T14:42:36.385Z,53.39
2022-10-07T14:45:39.360Z,53.67
2022-10-07T14:48:14.847Z,54.21
2022-10-07T14:50:48.767Z,54.15
2022-10-07T14:53:20.806Z,54.26
2022-10-07T15:00:45.932Z,55.22
2022-10-07T15:03:18.037Z,56.14
2022-10-07T15:06:32.717Z,56.71
2022-10-07T15:09:13.655Z,57.27
2022-10-07T15:11:45.713Z,57.54
2022-10-07T15:15:25.230Z,57.86
2022-10-07T15:18:57.317Z,58.68
2022-10-07T15:21:29.841Z,59.43
2022-10-07T15:28:27.238Z,60.84
2022-10-07T15:45:51.485Z,63.15
2022-10-07T15:52:54.806Z,63.84
2022-10-07T15:55:25.288Z,64.06
2022-10-07T15:57:57.648Z,64.44
2022-10-07T16:09:40.441Z,65.49
2022-10-07T16:17:09.436Z,66.29
2022-10-07T16:24:55.631Z,66.91
2022-10-07T16:33:07.944Z,67.44
2022-10-07T16:36:46.024Z,67.62
2022-10-07T16:39:21.363Z,67.86
2022-10-07T16:42:42.783Z,68.12
2022-10-07T16:45:23.184Z,68.40
2022-10-07T16:52:56.241Z,68.85
2022-10-07T16:56:20.369Z,69.14
2022-10-07T16:59:00.454Z,69.10
2022-10-07T17:01:33.899Z,69.22
2022-10-07T17:04:59.710Z,69.50
2022-10-07T17:12:06.921Z,70.17
2022-10-07T17:14:39.033Z,70.42
2022-10-07T17:18:19.440Z,70.43
2022-10-07T17:20:59.396Z,70.62
2022-10-07T17:27:27.918Z,70.95
2022-10-07T17:34:59.298Z,71.29
2022-10-07T17:38:05.879Z,71.58
2022-10-07T17:40:44.235Z,71.50
2022-10-07T17:43:16.252Z,71.65
2022-10-07T17:45:54.943Z,71.82
2022-10-07T17:48:27.107Z,71.74
2022-10-07T17:55:54.655Z,72.21
2022-10-07T18:02:55.785Z,72.62
2022-10-07T18:05:28.792Z,72.63
2022-10-07T18:08:11.225Z,72.71
2022-10-07T18:10:43.200Z,72.98
2022-10-07T18:16:57.542Z,73.78
2022-10-07T18:19:31.769Z,73.78
2022-10-07T18:22:10.134Z,74.10
2022-10-07T18:24:43.667Z,74.24
2022-10-07T18:27:16.797Z,74.50
2022-10-07T18:30:31.181Z,74.64
2022-10-07T18:33:03.299Z,75.03
2022-10-07T18:36:29.576Z,75.20
2022-10-07T18:52:40.491Z,76.66
2022-10-07T18:55:21.193Z,76.84
2022-10-07T18:58:17.951Z,76.93
2022-10-07T19:00:51.371Z,77.06
2022-10-07T19:03:23.531Z,77.31
2022-10-07T19:05:57.266Z,77.35
2022-10-07T19:08:32.204Z,77.33
2022-10-07T19:11:14.563Z,77.18
2022-10-07T19:18:05.986Z,77.33
2022-10-07T19:20:38.206Z,77.54
2022-10-07T19:23:17.385Z,77.29
2022-10-07T19:25:50.034Z,77.32
2022-10-07T19:28:31.308Z,77.36
2022-10-07T19:31:52.895Z,77.51
2022-10-07T19:34:28.466Z,77.49
2022-10-07T19:41:38.415Z,77.69
2022-10-07T19:44:40.311Z,78.02
2022-10-07T19:47:12.520Z,78.03
2022-10-07T19:54:47.948Z,78.10
2022-10-07T19:58:51.932Z,78.13
2022-10-07T20:01:26.298Z,78.21
2022-10-07T20:04:47.363Z,78.27
2022-10-07T20:07:26.914Z,78.15
2022-10-07T20:09:59.434Z,78.28
2022-10-07T20:13:03.199Z,78.20
2022-10-07T20:15:35.296Z,78.27
2022-10-07T20:22:57.968Z,78.41
2022-10-07T20:25:38.491Z,78.33
2022-10-07T20:28:13.865Z,78.50
2022-10-07T20:30:46.137Z,78.58
2022-10-07T20:37:49.589Z,78.71
2022-10-07T20:44:33.690Z,78.84
2022-10-07T20:47:06.413Z,78.92
2022-10-07T20:49:45.362Z,79.05
2022-10-07T20:52:45.420Z,79.08
2022-10-07T20:55:17.954Z,79.02
2022-10-07T21:16:20.526Z,79.89
2022-10-07T21:18:55.729Z,80.05
2022-10-07T21:21:28.122Z,80.05
2022-10-07T21:24:08.437Z,80.45
2022-10-07T21:26:42.291Z,80.58
2022-10-07T21:29:15.231Z,80.60
2022-10-07T21:41:34.726Z,81.23
2022-10-07T21:48:25.653Z,81.45
2022-10-07T21:50:59.062Z,81.56
2022-10-07T21:54:45.594Z,81.58
2022-10-07T21:57:24.473Z,81.75
2022-10-07T21:59:57.072Z,81.94
2022-10-07T22:02:35.802Z,81.87
2022-10-07T22:09:05.197Z,82.43
2022-10-07T22:11:37.581Z,82.43
2022-10-07T22:14:18.853Z,82.51
2022-10-07T22:17:40.870Z,82.58
2022-10-07T22:21:00.228Z,82.52
2022-10-07T22:28:54.181Z,82.97
2022-10-07T22:39:58.535Z,83.07
2022-10-07T22:42:30.779Z,83.32
2022-10-07T22:49:28.618Z,83.61
2022-10-07T23:03:07.749Z,84.60
2022-10-07T23:10:17.915Z,84.34
2022-10-07T23:13:40.762Z,84.30
2022-10-07T23:19:54.598Z,84.36
2022-10-07T23:23:19.368Z,84.46
2022-10-07T23:27:29.718Z,84.66
2022-10-07T23:30:02.811Z,84.29
2022-10-07T23:36:43.892Z,84.28
2022-10-07T23:52:57.336Z,84.47
2022-10-07T23:55:36.667Z,84.43
2022-10-07T23:58:09.323Z,84.24
